createdAt,value
2018-09-10T00:01:25.076Z,99590.16
2018-09-10T00:04:28.203Z,99595.42
2018-09-10T00:07:31.424Z,99592.13
2018-09-10T00:10:34.728Z,99590.17
2018-09-10T00:13:37.926Z,99598.70
2018-09-10T00:16:41.107Z,99591.32
2018-09-10T00:19:44.272Z,99602.14
2018-09-10T00:22:47.688Z,99595.09
2018-09-10T00:25:50.843Z,99596.88
2018-09-10T00:28:54.002Z,99602.26
2018-09-10T00:31:57.118Z,99600.94
2018-09-10T00:35:00.232Z,99607.00
2018-09-10T00:38:03.488Z,99596.36
2018-09-10T00:41:06.633Z,99591.80
2018-09-10T00:44:10.054Z,99590.16
2018-09-10T00:47:13.358Z,99587.20
2018-09-10T00:50:16.510Z,99580.64
2018-09-10T00:53:19.715Z,99583.12
2018-09-10T00:56:22.898Z,99583.61
2018-09-10T00:59:26.260Z,99580.02
2018-09-10T01:02:29.416Z,99584.92
2018-09-10T01:05:32.631Z,99582.64
2018-09-10T01:08:35.793Z,99583.95
2018-09-10T01:11:39.413Z,99577.37
2018-09-10T01:14:42.760Z,99571.47
2018-09-10T01:17:46.027Z,99584.44
2018-09-10T01:20:49.265Z,99596.89
2018-09-10T01:23:52.560Z,99596.52
2018-09-10T01:26:55.794Z,99604.98
2018-09-10T01:29:59.104Z,99599.63
2018-09-10T01:33:02.392Z,99603.94
2018-09-10T01:36:05.699Z,99595.38
2018-09-10T01:39:09.438Z,99595.74
2018-09-10T01:42:12.618Z,99587.55
2018-09-10T01:45:16.027Z,99588.64
2018-09-10T01:48:19.506Z,99583.50
2018-09-10T01:51:22.692Z,99591.73
2018-09-10T01:54:25.869Z,99596.68
2018-09-10T01:57:29.090Z,99598.37
2018-09-10T02:00:32.229Z,99593.75
2018-09-10T02:03:35.449Z,99592.78
2018-09-10T02:06:38.734Z,99601.12
2018-09-10T02:09:42.100Z,99608.50
2018-09-10T02:12:45.363Z,99606.04
2018-09-10T02:15:48.590Z,99617.05
2018-09-10T02:18:51.852Z,99612.89
2018-09-10T02:21:56.040Z,99606.56
2018-09-10T02:24:59.202Z,99601.31
2018-09-10T02:28:02.390Z,99601.64
2018-09-10T02:31:05.804Z,99596.06
2018-09-10T02:34:09.204Z,99589.84
2018-09-10T02:37:12.443Z,99592.25
2018-09-10T02:40:15.655Z,99589.63
2018-09-10T02:43:18.856Z,99585.86
2018-09-10T02:46:21.986Z,99573.38
2018-09-10T02:49:25.261Z,99573.08
2018-09-10T02:52:28.451Z,99582.27
2018-09-10T02:55:31.736Z,99581.58
2018-09-10T02:58:35.039Z,99581.27
2018-09-10T03:01:39.221Z,99588.02
2018-09-10T03:04:44.975Z,99577.13
2018-09-10T03:07:48.198Z,99578.30
2018-09-10T03:10:51.429Z,99595.74
2018-09-10T03:13:54.639Z,99609.14
2018-09-10T03:16:57.859Z,99606.07
2018-09-10T03:20:01.033Z,99594.45
2018-09-10T03:23:04.227Z,99590.29
2018-09-10T03:26:07.464Z,99583.88
2018-09-10T03:29:10.744Z,99572.13
2018-09-10T03:32:13.856Z,99578.66
2018-09-10T03:35:17.078Z,99575.42
2018-09-10T03:38:20.242Z,99568.71
2018-09-10T03:41:23.435Z,99563.63
2018-09-10T03:44:26.715Z,99561.82
2018-09-10T03:47:29.999Z,99564.28
2018-09-10T03:50:33.359Z,99564.29
2018-09-10T03:53:36.848Z,99566.25
2018-09-10T03:56:40.208Z,99576.67
2018-09-10T03:59:43.572Z,99581.94
2018-09-10T04:02:46.816Z,99584.88
2018-09-10T04:05:50.138Z,99580.30
2018-09-10T04:08:53.455Z,99575.78
2018-09-10T04:12:59.790Z,99578.09
2018-09-10T04:16:04.115Z,99574.44
2018-09-10T04:19:07.587Z,99571.30
2018-09-10T04:22:42.131Z,99576.36
2018-09-10T04:25:45.388Z,99567.52
2018-09-10T04:28:48.736Z,99569.47
2018-09-10T04:31:51.927Z,99565.06
2018-09-10T04:34:57.104Z,99563.72
2018-09-10T04:38:03.417Z,99565.93
2018-09-10T04:41:06.644Z,99571.47
2018-09-10T04:44:10.850Z,99569.00
2018-09-10T04:47:14.004Z,99574.23
2018-09-10T04:50:18.662Z,99574.10
2018-09-10T04:53:25.822Z,99587.61
2018-09-10T04:56:29.173Z,99585.47
2018-09-10T04:59:32.373Z,99590.73
2018-09-10T05:02:35.675Z,99592.95
2018-09-10T05:05:38.900Z,99600.14
2018-09-10T05:08:41.991Z,99604.08
2018-09-10T05:11:45.379Z,99613.63
2018-09-10T05:14:48.814Z,99615.81
2018-09-10T05:17:52.058Z,99628.31
2018-09-10T05:20:55.320Z,99632.42
2018-09-10T05:23:58.582Z,99625.57
2018-09-10T05:27:01.819Z,99624.89
2018-09-10T05:30:06.101Z,99625.20
2018-09-10T05:33:09.368Z,99622.25
2018-09-10T05:36:14.719Z,99626.22
2018-09-10T05:39:17.963Z,99621.45
2018-09-10T05:42:21.170Z,99615.75
2018-09-10T05:45:24.532Z,99605.58
2018-09-10T05:48:27.781Z,99610.17
2018-09-10T05:54:41.771Z,99603.35
2018-09-10T05:57:45.042Z,99608.41
2018-09-10T06:00:48.246Z,99614.52
2018-09-10T06:03:53.555Z,99614.02
2018-09-10T06:11:04.792Z,99615.52
2018-09-10T06:14:08.007Z,99631.95
2018-09-10T06:17:41.987Z,99636.66
2018-09-10T06:20:46.210Z,99639.69
2018-09-10T06:23:51.432Z,99648.39
2018-09-10T06:26:54.782Z,99658.52
2018-09-10T06:29:58.033Z,99670.66
2018-09-10T06:33:03.287Z,99687.55
2018-09-10T06:36:07.554Z,99675.73
2018-09-10T06:39:12.321Z,99672.83
2018-09-10T06:42:15.733Z,99687.50
2018-09-10T06:45:18.945Z,99679.36
2018-09-10T06:48:22.305Z,99661.79
2018-09-10T06:51:25.610Z,99662.06
2018-09-10T06:54:29.867Z,99668.56
2018-09-10T06:57:34.114Z,99670.95
2018-09-10T07:00:39.302Z,99684.61
2018-09-10T07:03:42.429Z,99669.42
2018-09-10T07:06:46.051Z,99650.42
2018-09-10T07:09:50.334Z,99638.72
2018-09-10T07:12:54.564Z,99644.28
2018-09-10T07:15:57.842Z,99649.25
2018-09-10T07:19:01.062Z,99659.33
2018-09-10T07:22:04.478Z,99669.68
2018-09-10T07:25:08.741Z,99653.19
2018-09-10T07:28:12.211Z,99650.37
2018-09-10T07:31:15.470Z,99653.27
2018-09-10T07:34:18.756Z,99658.48
2018-09-10T07:37:22.021Z,99664.45
2018-09-10T07:40:25.256Z,99675.94
2018-09-10T07:43:28.488Z,99675.39
2018-09-10T07:46:31.712Z,99666.99
2018-09-10T07:49:35.039Z,99664.25
2018-09-10T07:52:38.308Z,99664.61
2018-09-10T07:55:41.521Z,99660.92
2018-09-10T07:58:44.800Z,99659.59
2018-09-10T08:01:47.997Z,99644.67
2018-09-10T08:04:51.190Z,99651.30
2018-09-10T08:07:54.384Z,99652.47
2018-09-10T08:10:57.498Z,99650.89
2018-09-10T08:14:00.698Z,99656.30
2018-09-10T08:17:03.992Z,99651.66
2018-09-10T08:20:07.476Z,99668.62
2018-09-10T08:23:11.707Z,99669.27
2018-09-10T08:26:15.067Z,99666.05
2018-09-10T08:29:18.389Z,99662.80
2018-09-10T08:32:21.669Z,99661.45
2018-09-10T08:35:24.951Z,99656.04
2018-09-10T08:38:28.120Z,99660.67
2018-09-10T08:41:31.337Z,99659.52
2018-09-10T08:44:34.646Z,99662.39
2018-09-10T08:47:38.101Z,99657.08
2018-09-10T08:50:41.356Z,99648.41
2018-09-10T08:53:44.783Z,99645.30
2018-09-10T08:56:48.093Z,99637.71
2018-09-10T08:59:51.211Z,99628.31
2018-09-10T09:02:54.575Z,99630.00
2018-09-10T09:05:57.742Z,99621.19
2018-09-10T09:09:01.142Z,99619.13
2018-09-10T09:12:04.387Z,99622.50
2018-09-10T09:15:07.706Z,99635.61
2018-09-10T09:18:11.223Z,99635.23
2018-09-10T09:21:14.663Z,99636.95
2018-09-10T09:24:17.956Z,99642.77
2018-09-10T09:27:21.351Z,99632.38
2018-09-10T09:30:24.669Z,99635.55
2018-09-10T09:33:27.980Z,99640.77
2018-09-10T09:36:36.811Z,99635.82
2018-09-10T09:39:45.816Z,99624.56
2018-09-10T09:42:54.770Z,99617.19
2018-09-10T09:46:03.522Z,99610.18
2018-09-10T09:49:06.783Z,99609.38
2018-09-10T09:52:11.255Z,99585.16
2018-09-10T09:55:14.531Z,99605.77
2018-09-10T09:58:18.850Z,99600.65
2018-09-10T10:01:27.794Z,99610.50
2018-09-10T10:04:31.314Z,99588.19
2018-09-10T10:07:34.570Z,99593.88
2018-09-10T10:10:38.110Z,99579.25
2018-09-10T10:13:41.392Z,99582.86
2018-09-10T10:16:44.648Z,99592.66
2018-09-10T10:19:48.379Z,99592.59
2018-09-10T10:22:51.700Z,99580.30
2018-09-10T10:25:54.946Z,99578.50
2018-09-10T10:28:58.160Z,99587.80
2018-09-10T10:32:01.446Z,99570.81
2018-09-10T10:35:05.023Z,99561.55
2018-09-10T10:38:08.195Z,99577.59
2018-09-10T10:41:11.425Z,99570.41
2018-09-10T10:44:45.467Z,99566.58
2018-09-10T10:47:48.608Z,99568.06
2018-09-10T10:50:51.833Z,99571.52
2018-09-10T10:53:55.071Z,99561.70
2018-09-10T10:56:58.278Z,99563.52
2018-09-10T11:00:01.901Z,99547.84
2018-09-10T11:03:05.249Z,99556.05
2018-09-10T11:06:08.598Z,99555.91
2018-09-10T11:09:11.871Z,99538.19
2018-09-10T11:12:15.230Z,99543.33
2018-09-10T11:15:18.431Z,99537.70
2018-09-10T11:18:21.720Z,99536.54
2018-09-10T11:21:25.275Z,99530.64
2018-09-10T11:24:28.543Z,99539.73
2018-09-10T11:27:31.871Z,99521.62
2018-09-10T11:30:35.126Z,99526.99
2018-09-10T11:33:38.331Z,99529.13
2018-09-10T11:36:41.344Z,99526.05
2018-09-10T11:39:44.557Z,99519.32
2018-09-10T11:42:47.693Z,99513.34
2018-09-10T11:45:50.841Z,99508.28
2018-09-10T11:48:54.144Z,99514.75
2018-09-10T11:51:57.282Z,99501.36
2018-09-10T11:55:00.457Z,99494.90
2018-09-10T11:58:03.592Z,99494.47
2018-09-10T12:01:06.709Z,99494.15
2018-09-10T12:04:09.960Z,99505.26
2018-09-10T12:07:13.778Z,99491.67
2018-09-10T12:10:16.992Z,99488.73
2018-09-10T12:13:20.514Z,99490.20
2018-09-10T12:16:23.818Z,99490.65
2018-09-10T12:19:27.022Z,99498.27
2018-09-10T12:22:30.326Z,99482.63
2018-09-10T12:25:33.527Z,99491.00
2018-09-10T12:28:36.684Z,99491.96
2018-09-10T12:31:39.810Z,99471.72
2018-09-10T12:35:45.984Z,99479.83
2018-09-10T12:38:49.204Z,99468.20
2018-09-10T12:41:52.309Z,99475.27
2018-09-10T12:44:55.500Z,99475.80
2018-09-10T12:47:58.685Z,99475.67
2018-09-10T12:51:01.926Z,99466.59
2018-09-10T12:54:05.057Z,99477.52
2018-09-10T12:57:08.372Z,99470.08
2018-09-10T13:00:11.637Z,99470.08
2018-09-10T13:03:14.901Z,99461.95
2018-09-10T13:06:18.052Z,99471.34
2018-09-10T13:09:21.215Z,99475.47
2018-09-10T13:12:24.479Z,99454.77
2018-09-10T13:15:27.754Z,99466.17
2018-09-10T13:18:30.991Z,99463.54
2018-09-10T13:21:34.463Z,99452.00
2018-09-10T13:24:37.587Z,99461.97
2018-09-10T13:27:40.724Z,99470.62
2018-09-10T13:30:43.804Z,99470.26
2018-09-10T13:33:47.000Z,99482.32
2018-09-10T13:36:50.131Z,99490.65
2018-09-10T13:39:53.441Z,99468.91
2018-09-10T13:42:56.617Z,99470.89
2018-09-10T13:45:59.700Z,99469.51
2018-09-10T13:49:02.965Z,99462.25
2018-09-10T13:52:06.160Z,99479.39
2018-09-10T13:55:09.220Z,99491.82
2018-09-10T13:58:43.461Z,99483.75
2018-09-10T14:01:46.725Z,99486.59
2018-09-10T14:04:49.944Z,99482.22
2018-09-10T14:07:53.118Z,99482.03
2018-09-10T14:10:56.261Z,99487.97
2018-09-10T14:13:59.636Z,99479.95
2018-09-10T14:17:02.791Z,99470.42
2018-09-10T14:20:06.000Z,99474.47
2018-09-10T14:23:10.058Z,99470.98
2018-09-10T14:26:13.302Z,99483.79
2018-09-10T14:29:16.791Z,99473.48
2018-09-10T14:32:20.346Z,99458.66
2018-09-10T14:35:23.661Z,99450.95
2018-09-10T14:38:26.789Z,99442.68
2018-09-10T14:41:29.927Z,99428.52
2018-09-10T14:44:33.181Z,99488.48
2018-09-10T14:47:36.235Z,99473.88
2018-09-10T14:50:39.309Z,99482.30
2018-09-10T14:53:42.598Z,99479.78
2018-09-10T14:56:45.796Z,99476.06
2018-09-10T14:59:48.901Z,99478.83
2018-09-10T15:02:52.226Z,99485.78
2018-09-10T15:05:55.622Z,99484.48
2018-09-10T15:08:58.857Z,99494.88
2018-09-10T15:12:01.987Z,99495.36
2018-09-10T15:15:05.162Z,99503.23
2018-09-10T15:18:08.338Z,99511.80
2018-09-10T15:21:11.543Z,99515.98
2018-09-10T15:24:14.713Z,99504.29
2018-09-10T15:27:17.944Z,99514.76
2018-09-10T15:30:21.082Z,99507.84
2018-09-10T15:33:24.341Z,99515.67
2018-09-10T15:36:27.512Z,99514.19
2018-09-10T15:39:30.721Z,99514.41
2018-09-10T15:42:33.905Z,99515.86
2018-09-10T15:45:39.134Z,99513.19
2018-09-10T15:48:42.226Z,99513.22
2018-09-10T15:51:45.491Z,99523.61
2018-09-10T15:54:48.703Z,99532.28
2018-09-10T15:57:51.905Z,99538.19
2018-09-10T16:00:55.096Z,99533.26
2018-09-10T16:03:58.303Z,99530.09
2018-09-10T16:07:01.457Z,99528.08
2018-09-10T16:10:04.901Z,99530.73
2018-09-10T16:13:08.129Z,99539.63
2018-09-10T16:16:12.216Z,99555.97
2018-09-10T16:19:15.392Z,99569.39
2018-09-10T16:22:19.022Z,99574.72
2018-09-10T16:25:22.394Z,99576.12
2018-09-10T16:28:26.508Z,99579.45
2018-09-10T16:31:29.990Z,99587.52
2018-09-10T16:34:33.251Z,99588.44
2018-09-10T16:37:36.809Z,99583.44
2018-09-10T16:40:40.006Z,99592.30
2018-09-10T16:43:43.174Z,99599.67
2018-09-10T16:46:46.437Z,99603.02
2018-09-10T16:49:49.941Z,99600.00
2018-09-10T16:52:53.222Z,99606.23
2018-09-10T16:55:57.338Z,99598.30
2018-09-10T16:59:01.057Z,99604.78
2018-09-10T17:02:04.473Z,99601.43
2018-09-10T17:05:07.709Z,99596.56
2018-09-10T17:08:10.852Z,99603.13
2018-09-10T17:11:14.127Z,99595.41
2018-09-10T17:14:17.534Z,99605.38
2018-09-10T17:17:20.817Z,99594.25
2018-09-10T17:20:24.021Z,99585.20
2018-09-10T17:23:27.285Z,99596.11
2018-09-10T17:26:30.703Z,99604.11
2018-09-10T17:29:33.757Z,99594.84
2018-09-10T17:32:38.317Z,99602.48
2018-09-10T17:35:41.450Z,99606.34
2018-09-10T17:38:46.780Z,99612.36
2018-09-10T17:41:52.174Z,99611.41
2018-09-10T17:44:55.366Z,99615.47
2018-09-10T17:47:58.686Z,99629.84
2018-09-10T17:51:03.271Z,99626.27
2018-09-10T17:54:06.698Z,99627.45
2018-09-10T17:57:09.765Z,99618.96
2018-09-10T18:00:15.026Z,99625.22
2018-09-10T18:03:18.249Z,99620.36
2018-09-10T18:06:22.066Z,99625.89
2018-09-10T18:09:25.133Z,99636.86
2018-09-10T18:12:30.837Z,99636.14
2018-09-10T18:15:34.033Z,99636.28
2018-09-10T18:18:37.213Z,99642.72
2018-09-10T18:21:40.373Z,99650.85
2018-09-10T18:24:46.716Z,99667.70
2018-09-10T18:27:50.304Z,99670.72
2018-09-10T18:30:54.449Z,99677.83
2018-09-10T18:33:57.582Z,99674.94
2018-09-10T18:37:00.707Z,99671.98
2018-09-10T18:40:04.094Z,99677.88
2018-09-10T18:43:07.470Z,99684.30
2018-09-10T18:49:46.023Z,99707.23
2018-09-10T18:52:49.274Z,99717.22
2018-09-10T18:55:53.823Z,99723.13
2018-09-10T18:58:59.937Z,99721.58
2018-09-10T19:02:03.185Z,99733.45
2018-09-10T19:05:06.551Z,99739.41
2018-09-10T19:08:09.842Z,99742.19
2018-09-10T19:11:13.093Z,99734.77
2018-09-10T19:14:16.368Z,99741.37
2018-09-10T19:17:19.767Z,99741.92
2018-09-10T19:20:22.915Z,99736.83
2018-09-10T19:23:26.089Z,99748.34
2018-09-10T19:26:29.351Z,99745.07
2018-09-10T19:29:32.598Z,99746.01
2018-09-10T19:32:35.733Z,99746.11
2018-09-10T19:35:39.019Z,99744.47
2018-09-10T19:38:42.310Z,99739.77
2018-09-10T19:41:45.614Z,99752.29
2018-09-10T19:44:48.931Z,99752.40
2018-09-10T19:47:52.039Z,99752.99
2018-09-10T19:50:55.347Z,99747.21
2018-09-10T19:53:58.598Z,99751.08
2018-09-10T19:57:01.902Z,99749.13
2018-09-10T20:00:05.291Z,99739.78
2018-09-10T20:03:08.499Z,99745.54
2018-09-10T20:06:11.800Z,99738.50
2018-09-10T20:09:15.053Z,99743.05
2018-09-10T20:12:18.289Z,99739.28
2018-09-10T20:15:21.627Z,99739.03
2018-09-10T20:18:24.754Z,99747.91
2018-09-10T20:21:27.940Z,99752.38
2018-09-10T20:24:31.304Z,99752.05
2018-09-10T20:27:34.448Z,99753.62
2018-09-10T20:30:37.715Z,99748.77
2018-09-10T20:34:12.726Z,99742.98
2018-09-10T20:37:15.889Z,99732.41
2018-09-10T20:40:19.090Z,99724.60
2018-09-10T20:43:22.295Z,99723.36
2018-09-10T20:46:25.483Z,99726.20
2018-09-10T20:49:29.084Z,99724.94
2018-09-10T20:52:32.385Z,99725.79
2018-09-10T20:55:35.673Z,99723.23
2018-09-10T20:58:38.799Z,99720.98
2018-09-10T21:01:42.050Z,99713.75
2018-09-10T21:04:45.259Z,99718.49
2018-09-10T21:07:48.360Z,99718.30
2018-09-10T21:10:51.545Z,99720.64
2018-09-10T21:13:54.945Z,99723.58
2018-09-10T21:16:58.174Z,99711.20
2018-09-10T21:20:01.545Z,99713.85
2018-09-10T21:23:04.957Z,99728.74
2018-09-10T21:26:08.219Z,99738.27
2018-09-10T21:29:11.388Z,99740.28
2018-09-10T21:32:14.549Z,99742.14
2018-09-10T21:35:17.764Z,99741.59
2018-09-10T21:38:20.991Z,99740.89
2018-09-10T21:41:24.220Z,99734.28
2018-09-10T21:44:27.365Z,99742.61
2018-09-10T21:47:31.614Z,99752.85
2018-09-10T21:50:34.833Z,99753.62
2018-09-10T21:53:39.200Z,99756.26
2018-09-10T21:56:42.343Z,99768.69
2018-09-10T21:59:45.482Z,99765.91
2018-09-10T22:02:48.553Z,99770.38
2018-09-10T22:05:51.982Z,99772.52
2018-09-10T22:08:55.207Z,99769.88
2018-09-10T22:12:01.322Z,99763.88
2018-09-10T22:15:04.620Z,99773.90
2018-09-10T22:18:07.766Z,99775.30
2018-09-10T22:21:10.859Z,99779.42
2018-09-10T22:24:14.949Z,99783.47
2018-09-10T22:27:18.108Z,99774.03
2018-09-10T22:30:21.298Z,99768.68
2018-09-10T22:33:24.404Z,99775.34
2018-09-10T22:36:28.693Z,99767.11
2018-09-10T22:39:31.840Z,99757.94
2018-09-10T22:42:41.547Z,99753.36
2018-09-10T22:45:44.672Z,99748.47
2018-09-10T22:48:47.902Z,99736.89
2018-09-10T22:51:52.749Z,99735.59
2018-09-10T22:54:55.955Z,99740.55
2018-09-10T22:58:02.399Z,99750.33
2018-09-10T23:01:05.542Z,99744.45
2018-09-10T23:04:09.849Z,99743.23
2018-09-10T23:07:14.077Z,99743.99
2018-09-10T23:10:17.266Z,99746.44
2018-09-10T23:13:20.393Z,99752.31
2018-09-10T23:16:23.560Z,99752.52
2018-09-10T23:19:26.824Z,99752.27
2018-09-10T23:22:29.918Z,99743.90
2018-09-10T23:25:33.973Z,99748.28
2018-09-10T23:28:39.276Z,99743.56
2018-09-10T23:31:42.545Z,99751.66
2018-09-10T23:34:45.718Z,99752.50
2018-09-10T23:37:48.897Z,99753.42
2018-09-10T23:40:52.024Z,99753.45
2018-09-10T23:43:55.182Z,99754.31
2018-09-10T23:46:58.366Z,99750.31
2018-09-10T23:50:01.611Z,99736.69
2018-09-10T23:53:08.207Z,99738.84
2018-09-10T23:56:13.470Z,99739.67
2018-09-10T23:59:18.881Z,99743.41
